Current Weather

La Porte Muni

La Porte, Indiana (KPPO)

Report from: Monday, June 17, 2024 4:55 AM CDT
Current time: Monday, June 17, 2024 5:11 AM CDT

Nearby weather – Weather history – Daily summaries
Weather forecast

Temperature24.0°C (75.2°F)
Dew point21.0°C (69.8°F)
Winds 3 kts (1.5 m/s, 3.5 mph) South (180°)
Visibility10 mi. (16.1 km)
Clouds Sky clear
Altimeter29.95 in.Hg (1014 mB)
Relative humidity83 %
Density altitude1,347 ft. (411 m)
Remarks Fully automated report
Automated weather observing station with precipitation discriminator
Flight conditions Visual Meteorological Conditions
Raw dataKPPO 170955Z AUTO 18003KT 10SM CLR 24/21 A2995 RMK AO2
An error has occurred. This application may no longer respond until reloaded. Reload 🗙